sensor_id;sensor_type;location;lat;lon;timestamp;P1;durP1;ratioP1;P2;durP2;ratioP2
16516;SDS011;8371;52.272;9.746;2023-08-12T00:01:50;2.97;;;1.57;;
16516;SDS011;8371;52.272;9.746;2023-08-12T00:04:16;2.40;;;1.60;;
16516;SDS011;8371;52.272;9.746;2023-08-12T00:06:42;6.60;;;1.53;;
16516;SDS011;8371;52.272;9.746;2023-08-12T00:09:08;1.60;;;1.60;;
16516;SDS011;8371;52.272;9.746;2023-08-12T00:11:37;1.80;;;1.77;;
16516;SDS011;8371;52.272;9.746;2023-08-12T00:14:04;1.60;;;1.60;;
16516;SDS011;8371;52.272;9.746;2023-08-12T00:16:30;2.33;;;1.37;;
16516;SDS011;8371;52.272;9.746;2023-08-12T00:18:56;1.77;;;1.67;;
16516;SDS011;8371;52.272;9.746;2023-08-12T00:21:21;1.93;;;1.87;;
16516;SDS011;8371;52.272;9.746;2023-08-12T00:23:47;5.33;;;1.83;;
16516;SDS011;8371;52.272;9.746;2023-08-12T00:26:15;2.10;;;2.00;;
16516;SDS011;8371;52.272;9.746;2023-08-12T00:28:41;6.70;;;1.80;;
16516;SDS011;8371;52.272;9.746;2023-08-12T00:31:07;1.80;;;1.77;;
16516;SDS011;8371;52.272;9.746;2023-08-12T00:33:33;1.87;;;1.70;;
16516;SDS011;8371;52.272;9.746;2023-08-12T00:35:59;6.00;;;1.90;;
16516;SDS011;8371;52.272;9.746;2023-08-12T00:38:24;1.53;;;1.43;;
16516;SDS011;8371;52.272;9.746;2023-08-12T00:40:50;1.90;;;1.80;;
16516;SDS011;8371;52.272;9.746;2023-08-12T00:43:16;3.47;;;1.80;;
16516;SDS011;8371;52.272;9.746;2023-08-12T00:45:41;2.07;;;1.60;;
16516;SDS011;8371;52.272;9.746;2023-08-12T00:48:08;1.87;;;1.77;;
16516;SDS011;8371;52.272;9.746;2023-08-12T00:50:34;1.93;;;1.63;;
16516;SDS011;8371;52.272;9.746;2023-08-12T00:53:01;1.73;;;1.50;;
16516;SDS011;8371;52.272;9.746;2023-08-12T00:55:27;4.00;;;1.50;;
16516;SDS011;8371;52.272;9.746;2023-08-12T00:57:53;1.93;;;1.70;;
16516;SDS011;8371;52.272;9.746;2023-08-12T01:00:19;1.87;;;1.77;;
16516;SDS011;8371;52.272;9.746;2023-08-12T01:02:46;2.10;;;2.00;;
16516;SDS011;8371;52.272;9.746;2023-08-12T01:05:14;1.47;;;1.47;;
16516;SDS011;8371;52.272;9.746;2023-08-12T01:07:43;1.63;;;1.50;;
16516;SDS011;8371;52.272;9.746;2023-08-12T01:10:10;3.03;;;1.90;;
16516;SDS011;8371;52.272;9.746;2023-08-12T01:12:41;2.60;;;1.70;;
16516;SDS011;8371;52.272;9.746;2023-08-12T01:15:08;1.57;;;1.47;;
16516;SDS011;8371;52.272;9.746;2023-08-12T01:17:49;1.70;;;1.70;;
16516;SDS011;8371;52.272;9.746;2023-08-12T01:20:19;2.20;;;1.83;;
16516;SDS011;8371;52.272;9.746;2023-08-12T01:22:58;1.80;;;1.80;;
16516;SDS011;8371;52.272;9.746;2023-08-12T01:25:33;1.70;;;1.60;;
16516;SDS011;8371;52.272;9.746;2023-08-12T01:27:58;1.97;;;1.90;;
16516;SDS011;8371;52.272;9.746;2023-08-12T01:30:24;2.10;;;1.90;;
16516;SDS011;8371;52.272;9.746;2023-08-12T01:32:56;1.87;;;1.77;;
16516;SDS011;8371;52.272;9.746;2023-08-12T01:35:20;2.20;;;2.10;;
16516;SDS011;8371;52.272;9.746;2023-08-12T01:37:49;4.00;;;2.00;;
16516;SDS011;8371;52.272;9.746;2023-08-12T01:40:16;2.10;;;2.00;;
16516;SDS011;8371;52.272;9.746;2023-08-12T01:42:43;2.93;;;1.83;;
16516;SDS011;8371;52.272;9.746;2023-08-12T01:45:10;1.60;;;1.60;;
16516;SDS011;8371;52.272;9.746;2023-08-12T01:47:36;2.33;;;2.13;;
16516;SDS011;8371;52.272;9.746;2023-08-12T01:50:02;1.50;;;1.50;;
16516;SDS011;8371;52.272;9.746;2023-08-12T01:52:28;7.27;;;1.80;;
16516;SDS011;8371;52.272;9.746;2023-08-12T01:54:54;2.00;;;1.90;;
16516;SDS011;8371;52.272;9.746;2023-08-12T01:57:20;1.87;;;1.77;;
16516;SDS011;8371;52.272;9.746;2023-08-12T01:59:46;2.50;;;1.80;;
16516;SDS011;8371;52.272;9.746;2023-08-12T02:02:12;1.80;;;1.80;;
16516;SDS011;8371;52.272;9.746;2023-08-12T02:04:39;2.10;;;2.00;;
16516;SDS011;8371;52.272;9.746;2023-08-12T02:07:05;2.10;;;2.00;;
16516;SDS011;8371;52.272;9.746;2023-08-12T02:09:31;2.23;;;1.60;;
16516;SDS011;8371;52.272;9.746;2023-08-12T02:11:57;1.80;;;1.80;;
16516;SDS011;8371;52.272;9.746;2023-08-12T02:14:23;2.30;;;2.20;;
16516;SDS011;8371;52.272;9.746;2023-08-12T02:16:49;2.30;;;2.10;;
16516;SDS011;8371;52.272;9.746;2023-08-12T02:19:14;2.37;;;2.27;;
16516;SDS011;8371;52.272;9.746;2023-08-12T02:21:40;1.87;;;1.83;;
16516;SDS011;8371;52.272;9.746;2023-08-12T02:24:09;2.47;;;1.87;;
16516;SDS011;8371;52.272;9.746;2023-08-12T02:26:34;1.50;;;1.50;;
16516;SDS011;8371;52.272;9.746;2023-08-12T02:29:00;2.60;;;1.93;;
16516;SDS011;8371;52.272;9.746;2023-08-12T02:31:26;1.80;;;1.80;;
16516;SDS011;8371;52.272;9.746;2023-08-12T02:33:52;2.20;;;2.03;;
16516;SDS011;8371;52.272;9.746;2023-08-12T02:36:17;1.83;;;1.77;;
16516;SDS011;8371;52.272;9.746;2023-08-12T02:38:43;2.17;;;1.87;;
16516;SDS011;8371;52.272;9.746;2023-08-12T02:41:09;1.70;;;1.70;;
16516;SDS011;8371;52.272;9.746;2023-08-12T02:43:34;1.60;;;1.50;;
16516;SDS011;8371;52.272;9.746;2023-08-12T02:46:00;2.07;;;1.83;;
16516;SDS011;8371;52.272;9.746;2023-08-12T02:48:26;1.73;;;1.63;;
16516;SDS011;8371;52.272;9.746;2023-08-12T02:50:51;1.93;;;1.83;;
16516;SDS011;8371;52.272;9.746;2023-08-12T02:53:17;1.80;;;1.80;;
16516;SDS011;8371;52.272;9.746;2023-08-12T02:55:44;1.70;;;1.67;;
16516;SDS011;8371;52.272;9.746;2023-08-12T02:58:10;1.93;;;1.83;;
16516;SDS011;8371;52.272;9.746;2023-08-12T03:00:37;2.60;;;2.00;;
16516;SDS011;8371;52.272;9.746;2023-08-12T03:03:04;1.93;;;1.80;;
16516;SDS011;8371;52.272;9.746;2023-08-12T03:05:30;4.27;;;1.67;;
16516;SDS011;8371;52.272;9.746;2023-08-12T03:07:56;1.60;;;1.60;;
16516;SDS011;8371;52.272;9.746;2023-08-12T03:10:22;1.83;;;1.73;;
16516;SDS011;8371;52.272;9.746;2023-08-12T03:12:48;3.13;;;1.77;;
16516;SDS011;8371;52.272;9.746;2023-08-12T03:15:14;1.50;;;1.50;;
16516;SDS011;8371;52.272;9.746;2023-08-12T03:17:39;2.90;;;1.80;;
16516;SDS011;8371;52.272;9.746;2023-08-12T03:20:07;1.80;;;1.60;;
16516;SDS011;8371;52.272;9.746;2023-08-12T03:22:35;1.67;;;1.57;;
16516;SDS011;8371;52.272;9.746;2023-08-12T03:25:02;1.70;;;1.70;;
16516;SDS011;8371;52.272;9.746;2023-08-12T03:27:29;1.73;;;1.73;;
16516;SDS011;8371;52.272;9.746;2023-08-12T03:29:55;2.27;;;2.07;;
16516;SDS011;8371;52.272;9.746;2023-08-12T03:32:20;1.40;;;1.40;;
16516;SDS011;8371;52.272;9.746;2023-08-12T03:34:46;2.37;;;1.63;;
16516;SDS011;8371;52.272;9.746;2023-08-12T03:37:12;1.60;;;1.50;;
16516;SDS011;8371;52.272;9.746;2023-08-12T03:39:37;1.40;;;1.40;;
16516;SDS011;8371;52.272;9.746;2023-08-12T03:42:03;1.63;;;1.63;;
16516;SDS011;8371;52.272;9.746;2023-08-12T03:44:29;1.57;;;1.57;;
16516;SDS011;8371;52.272;9.746;2023-08-12T03:46:54;1.50;;;1.50;;
16516;SDS011;8371;52.272;9.746;2023-08-12T03:49:20;1.67;;;1.57;;
16516;SDS011;8371;52.272;9.746;2023-08-12T03:51:46;1.60;;;1.50;;
16516;SDS011;8371;52.272;9.746;2023-08-12T03:54:12;2.60;;;1.63;;
16516;SDS011;8371;52.272;9.746;2023-08-12T03:56:37;1.97;;;1.77;;
16516;SDS011;8371;52.272;9.746;2023-08-12T03:59:03;1.63;;;1.63;;
16516;SDS011;8371;52.272;9.746;2023-08-12T04:01:29;1.40;;;1.40;;
16516;SDS011;8371;52.272;9.746;2023-08-12T04:03:54;1.60;;;1.50;;
16516;SDS011;8371;52.272;9.746;2023-08-12T04:06:20;2.70;;;1.80;;
16516;SDS011;8371;52.272;9.746;2023-08-12T04:08:46;2.17;;;1.70;;
16516;SDS011;8371;52.272;9.746;2023-08-12T04:11:11;1.87;;;1.87;;
16516;SDS011;8371;52.272;9.746;2023-08-12T04:13:37;2.20;;;2.20;;
16516;SDS011;8371;52.272;9.746;2023-08-12T04:16:03;2.27;;;2.10;;
16516;SDS011;8371;52.272;9.746;2023-08-12T04:18:29;2.10;;;2.00;;
16516;SDS011;8371;52.272;9.746;2023-08-12T04:20:54;2.10;;;2.10;;
16516;SDS011;8371;52.272;9.746;2023-08-12T04:23:20;2.13;;;2.03;;
16516;SDS011;8371;52.272;9.746;2023-08-12T04:25:46;2.13;;;2.03;;
16516;SDS011;8371;52.272;9.746;2023-08-12T04:28:13;2.13;;;1.93;;
16516;SDS011;8371;52.272;9.746;2023-08-12T04:30:42;2.80;;;2.70;;
16516;SDS011;8371;52.272;9.746;2023-08-12T04:33:08;2.43;;;2.33;;
16516;SDS011;8371;52.272;9.746;2023-08-12T04:35:34;3.10;;;2.90;;
16516;SDS011;8371;52.272;9.746;2023-08-12T04:38:00;2.77;;;2.67;;
16516;SDS011;8371;52.272;9.746;2023-08-12T04:40:25;2.90;;;2.70;;
16516;SDS011;8371;52.272;9.746;2023-08-12T04:42:51;2.63;;;2.53;;
16516;SDS011;8371;52.272;9.746;2023-08-12T04:45:17;2.60;;;2.50;;
16516;SDS011;8371;52.272;9.746;2023-08-12T04:47:42;2.60;;;2.40;;
16516;SDS011;8371;52.272;9.746;2023-08-12T04:50:08;2.57;;;2.47;;
16516;SDS011;8371;52.272;9.746;2023-08-12T04:52:34;2.90;;;2.80;;
16516;SDS011;8371;52.272;9.746;2023-08-12T04:55:00;7.90;;;2.60;;
16516;SDS011;8371;52.272;9.746;2023-08-12T04:57:26;3.37;;;2.57;;
16516;SDS011;8371;52.272;9.746;2023-08-12T04:59:52;2.77;;;2.67;;
16516;SDS011;8371;52.272;9.746;2023-08-12T05:02:19;2.97;;;2.87;;
16516;SDS011;8371;52.272;9.746;2023-08-12T05:04:49;3.03;;;2.93;;
16516;SDS011;8371;52.272;9.746;2023-08-12T05:07:15;2.97;;;2.57;;
16516;SDS011;8371;52.272;9.746;2023-08-12T05:09:41;3.00;;;2.90;;
16516;SDS011;8371;52.272;9.746;2023-08-12T05:12:08;2.73;;;2.63;;
16516;SDS011;8371;52.272;9.746;2023-08-12T05:14:34;2.77;;;2.67;;
16516;SDS011;8371;52.272;9.746;2023-08-12T05:17:00;2.70;;;2.47;;
16516;SDS011;8371;52.272;9.746;2023-08-12T05:19:25;2.40;;;2.30;;
16516;SDS011;8371;52.272;9.746;2023-08-12T05:21:51;2.30;;;2.20;;
16516;SDS011;8371;52.272;9.746;2023-08-12T05:24:17;3.70;;;3.60;;
16516;SDS011;8371;52.272;9.746;2023-08-12T05:26:42;2.87;;;2.43;;
16516;SDS011;8371;52.272;9.746;2023-08-12T05:29:08;3.00;;;2.90;;
16516;SDS011;8371;52.272;9.746;2023-08-12T05:31:34;2.67;;;2.47;;
16516;SDS011;8371;52.272;9.746;2023-08-12T05:34:00;2.80;;;2.70;;
16516;SDS011;8371;52.272;9.746;2023-08-12T05:36:26;2.83;;;2.73;;
16516;SDS011;8371;52.272;9.746;2023-08-12T05:38:51;2.43;;;2.33;;
16516;SDS011;8371;52.272;9.746;2023-08-12T05:41:17;3.20;;;2.50;;
16516;SDS011;8371;52.272;9.746;2023-08-12T05:43:43;2.87;;;2.67;;
16516;SDS011;8371;52.272;9.746;2023-08-12T05:46:08;2.30;;;2.20;;
16516;SDS011;8371;52.272;9.746;2023-08-12T05:48:34;2.17;;;2.13;;
16516;SDS011;8371;52.272;9.746;2023-08-12T05:51:00;2.73;;;2.63;;
16516;SDS011;8371;52.272;9.746;2023-08-12T05:53:25;2.70;;;2.50;;
16516;SDS011;8371;52.272;9.746;2023-08-12T05:55:51;2.40;;;2.30;;
16516;SDS011;8371;52.272;9.746;2023-08-12T05:58:17;3.03;;;2.17;;
16516;SDS011;8371;52.272;9.746;2023-08-12T06:00:42;3.23;;;2.30;;
16516;SDS011;8371;52.272;9.746;2023-08-12T06:03:10;2.57;;;2.47;;
16516;SDS011;8371;52.272;9.746;2023-08-12T06:05:37;2.27;;;2.17;;
16516;SDS011;8371;52.272;9.746;2023-08-12T06:08:03;2.67;;;2.30;;
16516;SDS011;8371;52.272;9.746;2023-08-12T06:10:29;2.90;;;2.70;;
16516;SDS011;8371;52.272;9.746;2023-08-12T06:12:55;1.70;;;1.70;;
16516;SDS011;8371;52.272;9.746;2023-08-12T06:15:21;2.17;;;2.07;;
16516;SDS011;8371;52.272;9.746;2023-08-12T06:17:46;2.10;;;2.00;;
16516;SDS011;8371;52.272;9.746;2023-08-12T06:20:12;2.13;;;2.07;;
16516;SDS011;8371;52.272;9.746;2023-08-12T06:22:38;1.73;;;1.73;;
16516;SDS011;8371;52.272;9.746;2023-08-12T06:25:04;1.80;;;1.80;;
16516;SDS011;8371;52.272;9.746;2023-08-12T06:27:30;2.13;;;2.13;;
16516;SDS011;8371;52.272;9.746;2023-08-12T06:29:55;2.00;;;1.90;;
16516;SDS011;8371;52.272;9.746;2023-08-12T06:32:21;2.50;;;2.10;;
16516;SDS011;8371;52.272;9.746;2023-08-12T06:34:47;2.10;;;2.00;;
16516;SDS011;8371;52.272;9.746;2023-08-12T06:37:12;2.33;;;2.23;;
16516;SDS011;8371;52.272;9.746;2023-08-12T06:39:38;2.17;;;2.07;;
16516;SDS011;8371;52.272;9.746;2023-08-12T06:42:04;2.17;;;2.07;;
16516;SDS011;8371;52.272;9.746;2023-08-12T06:44:30;2.17;;;2.07;;
16516;SDS011;8371;52.272;9.746;2023-08-12T06:46:55;1.70;;;1.70;;
16516;SDS011;8371;52.272;9.746;2023-08-12T06:49:21;2.30;;;2.20;;
16516;SDS011;8371;52.272;9.746;2023-08-12T06:51:47;2.57;;;2.17;;
16516;SDS011;8371;52.272;9.746;2023-08-12T06:54:12;1.73;;;1.63;;
16516;SDS011;8371;52.272;9.746;2023-08-12T06:56:38;2.50;;;2.40;;
16516;SDS011;8371;52.272;9.746;2023-08-12T06:59:04;2.53;;;2.43;;
16516;SDS011;8371;52.272;9.746;2023-08-12T07:01:29;2.00;;;1.90;;
16516;SDS011;8371;52.272;9.746;2023-08-12T07:03:55;2.43;;;2.23;;
16516;SDS011;8371;52.272;9.746;2023-08-12T07:06:21;2.20;;;2.10;;
16516;SDS011;8371;52.272;9.746;2023-08-12T07:08:47;2.13;;;2.03;;
16516;SDS011;8371;52.272;9.746;2023-08-12T07:11:13;1.93;;;1.87;;
16516;SDS011;8371;52.272;9.746;2023-08-12T07:13:39;2.20;;;2.10;;
16516;SDS011;8371;52.272;9.746;2023-08-12T07:16:04;1.83;;;1.83;;
16516;SDS011;8371;52.272;9.746;2023-08-12T07:18:30;2.03;;;1.87;;
16516;SDS011;8371;52.272;9.746;2023-08-12T07:20:56;2.73;;;1.93;;
16516;SDS011;8371;52.272;9.746;2023-08-12T07:23:23;2.33;;;2.20;;
16516;SDS011;8371;52.272;9.746;2023-08-12T07:25:49;3.03;;;2.10;;
16516;SDS011;8371;52.272;9.746;2023-08-12T07:28:15;2.50;;;2.40;;
16516;SDS011;8371;52.272;9.746;2023-08-12T07:30:41;2.47;;;2.37;;
16516;SDS011;8371;52.272;9.746;2023-08-12T07:33:07;1.70;;;1.70;;
16516;SDS011;8371;52.272;9.746;2023-08-12T07:35:32;2.10;;;1.90;;
16516;SDS011;8371;52.272;9.746;2023-08-12T07:37:58;2.60;;;2.40;;
16516;SDS011;8371;52.272;9.746;2023-08-12T07:40:24;2.10;;;2.10;;
16516;SDS011;8371;52.272;9.746;2023-08-12T07:42:50;2.43;;;2.23;;
16516;SDS011;8371;52.272;9.746;2023-08-12T07:45:16;2.50;;;2.40;;
16516;SDS011;8371;52.272;9.746;2023-08-12T07:47:41;2.70;;;2.60;;
16516;SDS011;8371;52.272;9.746;2023-08-12T07:50:07;2.73;;;2.63;;
16516;SDS011;8371;52.272;9.746;2023-08-12T07:52:33;2.37;;;2.27;;
16516;SDS011;8371;52.272;9.746;2023-08-12T07:54:59;2.60;;;2.50;;
16516;SDS011;8371;52.272;9.746;2023-08-12T07:57:24;2.80;;;2.70;;
16516;SDS011;8371;52.272;9.746;2023-08-12T07:59:50;2.40;;;2.30;;
16516;SDS011;8371;52.272;9.746;2023-08-12T08:02:16;2.30;;;2.20;;
16516;SDS011;8371;52.272;9.746;2023-08-12T08:04:42;2.97;;;2.40;;
16516;SDS011;8371;52.272;9.746;2023-08-12T08:07:08;2.50;;;2.40;;
16516;SDS011;8371;52.272;9.746;2023-08-12T08:09:34;5.50;;;2.33;;
16516;SDS011;8371;52.272;9.746;2023-08-12T08:12:00;2.60;;;2.50;;
16516;SDS011;8371;52.272;9.746;2023-08-12T08:14:26;2.10;;;2.10;;
16516;SDS011;8371;52.272;9.746;2023-08-12T08:16:53;2.50;;;2.40;;
16516;SDS011;8371;52.272;9.746;2023-08-12T08:19:19;2.33;;;2.23;;
16516;SDS011;8371;52.272;9.746;2023-08-12T08:21:44;3.30;;;2.07;;
16516;SDS011;8371;52.272;9.746;2023-08-12T08:24:10;2.40;;;2.30;;
16516;SDS011;8371;52.272;9.746;2023-08-12T08:26:38;2.30;;;2.20;;
16516;SDS011;8371;52.272;9.746;2023-08-12T08:29:06;2.70;;;2.50;;
16516;SDS011;8371;52.272;9.746;2023-08-12T08:31:32;2.37;;;2.27;;
16516;SDS011;8371;52.272;9.746;2023-08-12T08:33:58;2.50;;;2.40;;
16516;SDS011;8371;52.272;9.746;2023-08-12T08:36:23;2.67;;;2.57;;
16516;SDS011;8371;52.272;9.746;2023-08-12T08:38:49;2.40;;;2.30;;
16516;SDS011;8371;52.272;9.746;2023-08-12T08:41:16;2.33;;;2.23;;
16516;SDS011;8371;52.272;9.746;2023-08-12T08:43:42;1.97;;;1.97;;
16516;SDS011;8371;52.272;9.746;2023-08-12T08:46:09;2.30;;;2.27;;
16516;SDS011;8371;52.272;9.746;2023-08-12T08:48:38;2.13;;;2.13;;
16516;SDS011;8371;52.272;9.746;2023-08-12T08:51:03;2.50;;;2.40;;
16516;SDS011;8371;52.272;9.746;2023-08-12T08:53:31;2.23;;;2.23;;
16516;SDS011;8371;52.272;9.746;2023-08-12T08:55:56;2.50;;;2.40;;
16516;SDS011;8371;52.272;9.746;2023-08-12T08:58:24;2.80;;;2.70;;
16516;SDS011;8371;52.272;9.746;2023-08-12T09:00:50;2.30;;;2.30;;
16516;SDS011;8371;52.272;9.746;2023-08-12T09:03:16;2.90;;;2.80;;
16516;SDS011;8371;52.272;9.746;2023-08-12T09:05:42;2.83;;;2.73;;
16516;SDS011;8371;52.272;9.746;2023-08-12T09:08:09;2.53;;;2.43;;
16516;SDS011;8371;52.272;9.746;2023-08-12T09:10:36;2.77;;;2.63;;
16516;SDS011;8371;52.272;9.746;2023-08-12T09:13:05;2.47;;;2.37;;
16516;SDS011;8371;52.272;9.746;2023-08-12T09:15:32;2.77;;;2.67;;
16516;SDS011;8371;52.272;9.746;2023-08-12T09:17:57;2.73;;;2.63;;
16516;SDS011;8371;52.272;9.746;2023-08-12T09:20:23;2.90;;;2.80;;
16516;SDS011;8371;52.272;9.746;2023-08-12T09:22:55;2.53;;;2.43;;
16516;SDS011;8371;52.272;9.746;2023-08-12T09:25:24;2.60;;;2.50;;
16516;SDS011;8371;52.272;9.746;2023-08-12T09:27:53;2.30;;;2.20;;
16516;SDS011;8371;52.272;9.746;2023-08-12T09:30:20;2.70;;;2.53;;
16516;SDS011;8371;52.272;9.746;2023-08-12T09:32:59;2.50;;;2.40;;
16516;SDS011;8371;52.272;9.746;2023-08-12T09:35:38;2.60;;;2.50;;
16516;SDS011;8371;52.272;9.746;2023-08-12T09:38:05;2.27;;;2.20;;
16516;SDS011;8371;52.272;9.746;2023-08-12T09:40:33;2.67;;;2.57;;
16516;SDS011;8371;52.272;9.746;2023-08-12T09:43:00;2.57;;;2.47;;
16516;SDS011;8371;52.272;9.746;2023-08-12T09:45:26;2.80;;;2.63;;
16516;SDS011;8371;52.272;9.746;2023-08-12T09:47:52;2.80;;;2.63;;
16516;SDS011;8371;52.272;9.746;2023-08-12T09:50:23;2.40;;;2.37;;
16516;SDS011;8371;52.272;9.746;2023-08-12T09:52:50;2.63;;;2.53;;
16516;SDS011;8371;52.272;9.746;2023-08-12T09:55:17;2.93;;;2.73;;
16516;SDS011;8371;52.272;9.746;2023-08-12T09:57:45;2.53;;;2.33;;
16516;SDS011;8371;52.272;9.746;2023-08-12T10:00:18;2.40;;;2.30;;
16516;SDS011;8371;52.272;9.746;2023-08-12T10:02:45;3.80;;;2.30;;
16516;SDS011;8371;52.272;9.746;2023-08-12T10:05:13;2.43;;;2.33;;
16516;SDS011;8371;52.272;9.746;2023-08-12T10:07:42;2.53;;;2.43;;
16516;SDS011;8371;52.272;9.746;2023-08-12T10:10:11;2.70;;;2.50;;
16516;SDS011;8371;52.272;9.746;2023-08-12T10:12:38;2.77;;;2.67;;
16516;SDS011;8371;52.272;9.746;2023-08-12T10:15:05;2.63;;;2.53;;
16516;SDS011;8371;52.272;9.746;2023-08-12T10:17:33;3.40;;;2.40;;
16516;SDS011;8371;52.272;9.746;2023-08-12T10:20:00;2.67;;;2.57;;
16516;SDS011;8371;52.272;9.746;2023-08-12T10:22:29;2.33;;;2.33;;
16516;SDS011;8371;52.272;9.746;2023-08-12T10:24:58;2.47;;;2.37;;
16516;SDS011;8371;52.272;9.746;2023-08-12T10:27:25;2.30;;;2.20;;
16516;SDS011;8371;52.272;9.746;2023-08-12T10:29:51;3.70;;;2.87;;
16516;SDS011;8371;52.272;9.746;2023-08-12T10:32:17;2.80;;;2.70;;
16516;SDS011;8371;52.272;9.746;2023-08-12T10:34:43;2.50;;;2.40;;
16516;SDS011;8371;52.272;9.746;2023-08-12T10:37:09;2.53;;;2.43;;
16516;SDS011;8371;52.272;9.746;2023-08-12T10:39:36;2.30;;;2.30;;
16516;SDS011;8371;52.272;9.746;2023-08-12T10:42:02;2.40;;;2.30;;
16516;SDS011;8371;52.272;9.746;2023-08-12T10:44:38;2.33;;;2.25;;
16516;SDS011;8371;52.272;9.746;2023-08-12T10:47:00;3.83;;;2.42;;
16516;SDS011;8371;52.272;9.746;2023-08-12T10:49:37;2.75;;;2.50;;
16516;SDS011;8371;52.272;9.746;2023-08-12T10:51:59;2.08;;;2.08;;
16516;SDS011;8371;52.272;9.746;2023-08-12T10:54:28;1.90;;;1.90;;
16516;SDS011;8371;52.272;9.746;2023-08-12T11:02:16;2.12;;;2.02;;
16516;SDS011;8371;52.272;9.746;2023-08-12T11:04:47;1.98;;;1.92;;
16516;SDS011;8371;52.272;9.746;2023-08-12T11:07:19;2.17;;;2.10;;
16516;SDS011;8371;52.272;9.746;2023-08-12T11:09:51;2.02;;;2.02;;
16516;SDS011;8371;52.272;9.746;2023-08-12T11:12:18;2.27;;;2.17;;
16516;SDS011;8371;52.272;9.746;2023-08-12T11:14:56;1.90;;;1.90;;
16516;SDS011;8371;52.272;9.746;2023-08-12T11:17:28;1.93;;;1.93;;
16516;SDS011;8371;52.272;9.746;2023-08-12T11:20:02;1.85;;;1.85;;
16516;SDS011;8371;52.272;9.746;2023-08-12T11:22:30;2.70;;;2.60;;
16516;SDS011;8371;52.272;9.746;2023-08-12T11:24:57;1.70;;;1.70;;
16516;SDS011;8371;52.272;9.746;2023-08-12T11:27:23;2.12;;;2.02;;
16516;SDS011;8371;52.272;9.746;2023-08-12T11:29:49;1.98;;;1.90;;
16516;SDS011;8371;52.272;9.746;2023-08-12T11:32:17;2.20;;;2.10;;
16516;SDS011;8371;52.272;9.746;2023-08-12T11:34:43;2.65;;;2.55;;
16516;SDS011;8371;52.272;9.746;2023-08-12T11:37:09;2.05;;;1.95;;
16516;SDS011;8371;52.272;9.746;2023-08-12T11:39:35;1.35;;;1.35;;
16516;SDS011;8371;52.272;9.746;2023-08-12T11:42:01;1.62;;;1.62;;
16516;SDS011;8371;52.272;9.746;2023-08-12T11:44:26;1.40;;;1.40;;
16516;SDS011;8371;52.272;9.746;2023-08-12T11:46:52;1.60;;;1.60;;
16516;SDS011;8371;52.272;9.746;2023-08-12T11:49:18;1.35;;;1.35;;
16516;SDS011;8371;52.272;9.746;2023-08-12T11:51:43;2.20;;;1.57;;
16516;SDS011;8371;52.272;9.746;2023-08-12T11:54:12;1.27;;;1.27;;
16516;SDS011;8371;52.272;9.746;2023-08-12T11:56:39;1.40;;;1.40;;
16516;SDS011;8371;52.272;9.746;2023-08-12T11:59:04;1.10;;;1.10;;
16516;SDS011;8371;52.272;9.746;2023-08-12T12:01:31;1.25;;;1.25;;
16516;SDS011;8371;52.272;9.746;2023-08-12T12:03:59;1.10;;;1.10;;
16516;SDS011;8371;52.272;9.746;2023-08-12T12:06:28;1.12;;;1.12;;
16516;SDS011;8371;52.272;9.746;2023-08-12T12:08:55;1.20;;;1.17;;
16516;SDS011;8371;52.272;9.746;2023-08-12T12:11:21;1.12;;;1.12;;
16516;SDS011;8371;52.272;9.746;2023-08-12T12:13:47;1.30;;;1.30;;
16516;SDS011;8371;52.272;9.746;2023-08-12T12:16:12;1.20;;;1.20;;
16516;SDS011;8371;52.272;9.746;2023-08-12T12:18:38;1.20;;;1.20;;
16516;SDS011;8371;52.272;9.746;2023-08-12T12:21:04;1.10;;;1.10;;
16516;SDS011;8371;52.272;9.746;2023-08-12T12:23:30;1.17;;;1.17;;
16516;SDS011;8371;52.272;9.746;2023-08-12T12:25:59;1.45;;;1.35;;
16516;SDS011;8371;52.272;9.746;2023-08-12T12:28:27;1.27;;;1.27;;
16516;SDS011;8371;52.272;9.746;2023-08-12T12:30:53;1.40;;;1.40;;
16516;SDS011;8371;52.272;9.746;2023-08-12T12:33:19;1.40;;;1.40;;
16516;SDS011;8371;52.272;9.746;2023-08-12T12:35:44;1.17;;;1.17;;
16516;SDS011;8371;52.272;9.746;2023-08-12T12:38:10;1.30;;;1.30;;
16516;SDS011;8371;52.272;9.746;2023-08-12T12:40:36;1.40;;;1.40;;
16516;SDS011;8371;52.272;9.746;2023-08-12T12:43:03;1.35;;;1.35;;
16516;SDS011;8371;52.272;9.746;2023-08-12T12:45:29;1.42;;;1.42;;
16516;SDS011;8371;52.272;9.746;2023-08-12T12:47:55;1.43;;;1.43;;
16516;SDS011;8371;52.272;9.746;2023-08-12T12:50:21;1.20;;;1.20;;
16516;SDS011;8371;52.272;9.746;2023-08-12T12:52:47;1.60;;;1.25;;
16516;SDS011;8371;52.272;9.746;2023-08-12T12:55:12;1.30;;;1.30;;
16516;SDS011;8371;52.272;9.746;2023-08-12T12:57:38;1.40;;;1.40;;
16516;SDS011;8371;52.272;9.746;2023-08-12T13:00:04;1.40;;;1.40;;
16516;SDS011;8371;52.272;9.746;2023-08-12T13:02:31;1.45;;;1.45;;
16516;SDS011;8371;52.272;9.746;2023-08-12T13:04:56;1.47;;;1.25;;
16516;SDS011;8371;52.272;9.746;2023-08-12T13:07:22;1.35;;;1.35;;
16516;SDS011;8371;52.272;9.746;2023-08-12T13:09:48;1.30;;;1.30;;
16516;SDS011;8371;52.272;9.746;2023-08-12T13:12:13;1.20;;;1.20;;
16516;SDS011;8371;52.272;9.746;2023-08-12T13:14:39;1.40;;;1.40;;
16516;SDS011;8371;52.272;9.746;2023-08-12T13:17:05;1.23;;;1.23;;
16516;SDS011;8371;52.272;9.746;2023-08-12T13:19:31;1.20;;;1.20;;
16516;SDS011;8371;52.272;9.746;2023-08-12T13:21:56;1.37;;;1.27;;
16516;SDS011;8371;52.272;9.746;2023-08-12T13:24:22;1.37;;;1.37;;
16516;SDS011;8371;52.272;9.746;2023-08-12T13:26:48;1.27;;;1.27;;
16516;SDS011;8371;52.272;9.746;2023-08-12T13:29:14;1.17;;;1.17;;
16516;SDS011;8371;52.272;9.746;2023-08-12T13:31:39;1.20;;;1.20;;
16516;SDS011;8371;52.272;9.746;2023-08-12T13:34:06;1.30;;;1.30;;
16516;SDS011;8371;52.272;9.746;2023-08-12T13:36:31;1.37;;;1.10;;
16516;SDS011;8371;52.272;9.746;2023-08-12T13:38:57;1.20;;;1.20;;
16516;SDS011;8371;52.272;9.746;2023-08-12T13:41:23;1.10;;;1.10;;
16516;SDS011;8371;52.272;9.746;2023-08-12T13:43:49;1.30;;;1.30;;
16516;SDS011;8371;52.272;9.746;2023-08-12T13:46:14;1.10;;;1.10;;
16516;SDS011;8371;52.272;9.746;2023-08-12T13:48:40;1.42;;;1.42;;
16516;SDS011;8371;52.272;9.746;2023-08-12T13:51:07;1.17;;;0.80;;
16516;SDS011;8371;52.272;9.746;2023-08-12T13:53:33;1.10;;;1.10;;
16516;SDS011;8371;52.272;9.746;2023-08-12T13:55:59;1.00;;;1.00;;
16516;SDS011;8371;52.272;9.746;2023-08-12T13:58:25;1.10;;;1.10;;
16516;SDS011;8371;52.272;9.746;2023-08-12T14:00:50;1.17;;;1.17;;
16516;SDS011;8371;52.272;9.746;2023-08-12T14:03:16;0.80;;;0.80;;
16516;SDS011;8371;52.272;9.746;2023-08-12T14:05:42;0.88;;;0.88;;
16516;SDS011;8371;52.272;9.746;2023-08-12T14:08:09;0.53;;;0.53;;
16516;SDS011;8371;52.272;9.746;2023-08-12T14:10:35;0.60;;;0.60;;
16516;SDS011;8371;52.272;9.746;2023-08-12T14:13:00;0.42;;;0.42;;
16516;SDS011;8371;52.272;9.746;2023-08-12T14:15:26;6.20;;;3.45;;
16516;SDS011;8371;52.272;9.746;2023-08-12T14:17:52;2.85;;;2.25;;
16516;SDS011;8371;52.272;9.746;2023-08-12T14:20:17;1.32;;;1.20;;
16516;SDS011;8371;52.272;9.746;2023-08-12T14:22:45;0.70;;;0.70;;
16516;SDS011;8371;52.272;9.746;2023-08-12T14:25:10;0.80;;;0.80;;
16516;SDS011;8371;52.272;9.746;2023-08-12T14:27:36;0.60;;;0.60;;
16516;SDS011;8371;52.272;9.746;2023-08-12T14:30:02;0.37;;;0.37;;
16516;SDS011;8371;52.272;9.746;2023-08-12T14:32:29;0.50;;;0.50;;
16516;SDS011;8371;52.272;9.746;2023-08-12T14:34:55;0.40;;;0.40;;
16516;SDS011;8371;52.272;9.746;2023-08-12T14:37:20;0.40;;;0.40;;
16516;SDS011;8371;52.272;9.746;2023-08-12T14:39:46;0.60;;;0.60;;
16516;SDS011;8371;52.272;9.746;2023-08-12T14:42:12;0.50;;;0.50;;
16516;SDS011;8371;52.272;9.746;2023-08-12T14:44:37;0.50;;;0.50;;
16516;SDS011;8371;52.272;9.746;2023-08-12T14:47:03;0.40;;;0.40;;
16516;SDS011;8371;52.272;9.746;2023-08-12T14:49:29;0.60;;;0.60;;
16516;SDS011;8371;52.272;9.746;2023-08-12T14:51:55;1.07;;;0.40;;
16516;SDS011;8371;52.272;9.746;2023-08-12T14:54:22;0.50;;;0.50;;
16516;SDS011;8371;52.272;9.746;2023-08-12T14:56:47;0.50;;;0.50;;
16516;SDS011;8371;52.272;9.746;2023-08-12T14:59:13;0.50;;;0.50;;
16516;SDS011;8371;52.272;9.746;2023-08-12T15:01:39;0.30;;;0.30;;